sensor_id;sensor_type;location;lat;lon;timestamp;P1;durP1;ratioP1;P2;durP2;ratioP2
54167;SDS011;40072;50.958;3.592;2022-09-30T00:01:29;24.80;;;17.73;;
54167;SDS011;40072;50.958;3.592;2022-09-30T00:03:56;19.70;;;16.00;;
54167;SDS011;40072;50.958;3.592;2022-09-30T00:06:23;20.30;;;15.35;;
54167;SDS011;40072;50.958;3.592;2022-09-30T00:08:50;19.20;;;15.20;;
54167;SDS011;40072;50.958;3.592;2022-09-30T00:11:17;24.10;;;16.50;;
54167;SDS011;40072;50.958;3.592;2022-09-30T00:13:46;19.35;;;14.02;;
54167;SDS011;40072;50.958;3.592;2022-09-30T00:16:13;16.60;;;14.18;;
54167;SDS011;40072;50.958;3.592;2022-09-30T00:18:41;19.73;;;14.90;;
54167;SDS011;40072;50.958;3.592;2022-09-30T00:21:07;17.27;;;14.05;;
54167;SDS011;40072;50.958;3.592;2022-09-30T00:23:35;19.70;;;14.48;;
54167;SDS011;40072;50.958;3.592;2022-09-30T00:26:03;17.08;;;13.27;;
54167;SDS011;40072;50.958;3.592;2022-09-30T00:28:32;16.20;;;12.52;;
54167;SDS011;40072;50.958;3.592;2022-09-30T00:30:58;16.70;;;14.80;;
54167;SDS011;40072;50.958;3.592;2022-09-30T00:33:24;20.27;;;14.70;;
54167;SDS011;40072;50.958;3.592;2022-09-30T00:35:51;19.02;;;13.93;;
54167;SDS011;40072;50.958;3.592;2022-09-30T00:38:16;17.73;;;14.07;;
54167;SDS011;40072;50.958;3.592;2022-09-30T00:40:42;19.13;;;11.70;;
54167;SDS011;40072;50.958;3.592;2022-09-30T00:43:12;13.73;;;10.73;;
54167;SDS011;40072;50.958;3.592;2022-09-30T00:45:41;15.55;;;12.32;;
54167;SDS011;40072;50.958;3.592;2022-09-30T00:48:15;13.23;;;11.38;;
54167;SDS011;40072;50.958;3.592;2022-09-30T00:50:45;14.57;;;11.10;;
54167;SDS011;40072;50.958;3.592;2022-09-30T00:53:15;13.60;;;10.80;;
54167;SDS011;40072;50.958;3.592;2022-09-30T00:56:04;14.10;;;12.65;;
54167;SDS011;40072;50.958;3.592;2022-09-30T01:01:24;16.48;;;12.77;;
54167;SDS011;40072;50.958;3.592;2022-09-30T01:03:51;16.77;;;12.98;;
54167;SDS011;40072;50.958;3.592;2022-09-30T01:06:21;13.23;;;11.82;;
54167;SDS011;40072;50.958;3.592;2022-09-30T01:08:48;17.80;;;11.18;;
54167;SDS011;40072;50.958;3.592;2022-09-30T01:11:15;12.48;;;11.18;;
54167;SDS011;40072;50.958;3.592;2022-09-30T01:13:41;16.05;;;12.23;;
54167;SDS011;40072;50.958;3.592;2022-09-30T01:16:31;14.30;;;12.77;;
54167;SDS011;40072;50.958;3.592;2022-09-30T01:30:22;12.70;;;9.82;;
54167;SDS011;40072;50.958;3.592;2022-09-30T01:33:15;11.93;;;10.43;;
54167;SDS011;40072;50.958;3.592;2022-09-30T01:35:52;13.65;;;9.50;;
54167;SDS011;40072;50.958;3.592;2022-09-30T01:39:02;12.63;;;9.95;;
54167;SDS011;40072;50.958;3.592;2022-09-30T01:44:37;14.32;;;10.73;;
54167;SDS011;40072;50.958;3.592;2022-09-30T01:47:21;11.95;;;10.75;;
54167;SDS011;40072;50.958;3.592;2022-09-30T01:49:55;16.40;;;12.55;;
54167;SDS011;40072;50.958;3.592;2022-09-30T01:52:43;17.08;;;12.38;;
54167;SDS011;40072;50.958;3.592;2022-09-30T01:57:56;13.88;;;12.40;;
54167;SDS011;40072;50.958;3.592;2022-09-30T02:00:31;17.85;;;11.88;;
54167;SDS011;40072;50.958;3.592;2022-09-30T02:05:33;14.68;;;11.25;;
54167;SDS011;40072;50.958;3.592;2022-09-30T02:08:06;13.70;;;11.32;;
54167;SDS011;40072;50.958;3.592;2022-09-30T02:10:46;18.27;;;13.30;;
54167;SDS011;40072;50.958;3.592;2022-09-30T02:18:43;20.08;;;14.88;;
54167;SDS011;40072;50.958;3.592;2022-09-30T02:21:13;16.33;;;12.15;;
54167;SDS011;40072;50.958;3.592;2022-09-30T02:23:51;14.32;;;11.57;;
54167;SDS011;40072;50.958;3.592;2022-09-30T02:26:27;21.48;;;14.90;;
54167;SDS011;40072;50.958;3.592;2022-09-30T02:29:04;17.80;;;14.27;;
54167;SDS011;40072;50.958;3.592;2022-09-30T02:31:38;19.48;;;15.38;;
54167;SDS011;40072;50.958;3.592;2022-09-30T02:34:10;26.45;;;17.58;;
54167;SDS011;40072;50.958;3.592;2022-09-30T02:37:23;24.92;;;17.60;;
54167;SDS011;40072;50.958;3.592;2022-09-30T02:39:42;28.25;;;20.85;;
54167;SDS011;40072;50.958;3.592;2022-09-30T02:42:22;18.88;;;16.85;;
54167;SDS011;40072;50.958;3.592;2022-09-30T02:44:52;16.40;;;14.70;;
54167;SDS011;40072;50.958;3.592;2022-09-30T02:50:17;18.00;;;13.85;;
54167;SDS011;40072;50.958;3.592;2022-09-30T02:55:25;21.63;;;15.82;;
54167;SDS011;40072;50.958;3.592;2022-09-30T03:00:53;22.77;;;17.35;;
54167;SDS011;40072;50.958;3.592;2022-09-30T03:03:20;29.83;;;19.92;;
54167;SDS011;40072;50.958;3.592;2022-09-30T03:05:50;22.45;;;18.92;;
54167;SDS011;40072;50.958;3.592;2022-09-30T03:08:16;27.77;;;20.23;;
54167;SDS011;40072;50.958;3.592;2022-09-30T03:10:42;29.98;;;21.67;;
54167;SDS011;40072;50.958;3.592;2022-09-30T03:42:54;19.17;;;16.00;;
54167;SDS011;40072;50.958;3.592;2022-09-30T03:45:32;20.75;;;17.27;;
54167;SDS011;40072;50.958;3.592;2022-09-30T03:48:02;18.38;;;15.35;;
54167;SDS011;40072;50.958;3.592;2022-09-30T03:52:57;23.20;;;17.67;;
54167;SDS011;40072;50.958;3.592;2022-09-30T03:55:23;21.98;;;16.60;;
54167;SDS011;40072;50.958;3.592;2022-09-30T03:57:50;20.98;;;15.57;;
54167;SDS011;40072;50.958;3.592;2022-09-30T04:00:16;20.02;;;16.02;;
54167;SDS011;40072;50.958;3.592;2022-09-30T04:02:43;23.30;;;18.17;;
54167;SDS011;40072;50.958;3.592;2022-09-30T04:05:09;22.27;;;17.55;;
54167;SDS011;40072;50.958;3.592;2022-09-30T04:07:35;21.45;;;17.33;;
54167;SDS011;40072;50.958;3.592;2022-09-30T04:10:01;19.95;;;17.52;;
54167;SDS011;40072;50.958;3.592;2022-09-30T04:12:27;21.75;;;16.77;;
54167;SDS011;40072;50.958;3.592;2022-09-30T04:14:53;23.15;;;15.95;;
54167;SDS011;40072;50.958;3.592;2022-09-30T04:17:18;26.38;;;18.67;;
54167;SDS011;40072;50.958;3.592;2022-09-30T04:19:44;26.77;;;20.17;;
54167;SDS011;40072;50.958;3.592;2022-09-30T04:22:10;25.23;;;19.15;;
54167;SDS011;40072;50.958;3.592;2022-09-30T04:24:36;27.73;;;19.58;;
54167;SDS011;40072;50.958;3.592;2022-09-30T04:27:03;25.38;;;19.60;;
54167;SDS011;40072;50.958;3.592;2022-09-30T04:29:28;28.75;;;18.52;;
54167;SDS011;40072;50.958;3.592;2022-09-30T04:31:54;28.65;;;16.88;;
54167;SDS011;40072;50.958;3.592;2022-09-30T04:34:20;19.75;;;16.52;;
54167;SDS011;40072;50.958;3.592;2022-09-30T04:36:46;26.48;;;18.08;;
54167;SDS011;40072;50.958;3.592;2022-09-30T04:39:11;24.83;;;18.67;;
54167;SDS011;40072;50.958;3.592;2022-09-30T04:41:37;28.02;;;20.23;;
54167;SDS011;40072;50.958;3.592;2022-09-30T04:44:03;23.58;;;19.13;;
54167;SDS011;40072;50.958;3.592;2022-09-30T04:46:32;29.00;;;18.60;;
54167;SDS011;40072;50.958;3.592;2022-09-30T04:49:01;21.23;;;17.17;;
54167;SDS011;40072;50.958;3.592;2022-09-30T04:51:27;23.88;;;19.75;;
54167;SDS011;40072;50.958;3.592;2022-09-30T04:53:54;33.53;;;19.00;;
54167;SDS011;40072;50.958;3.592;2022-09-30T04:56:19;28.92;;;20.65;;
54167;SDS011;40072;50.958;3.592;2022-09-30T04:58:47;21.95;;;19.38;;
54167;SDS011;40072;50.958;3.592;2022-09-30T05:01:14;23.67;;;19.42;;
54167;SDS011;40072;50.958;3.592;2022-09-30T05:03:41;26.45;;;20.15;;
54167;SDS011;40072;50.958;3.592;2022-09-30T05:06:07;29.45;;;22.13;;
54167;SDS011;40072;50.958;3.592;2022-09-30T05:08:34;30.38;;;22.63;;
54167;SDS011;40072;50.958;3.592;2022-09-30T05:11:00;32.60;;;21.83;;
54167;SDS011;40072;50.958;3.592;2022-09-30T05:13:29;32.72;;;23.25;;
54167;SDS011;40072;50.958;3.592;2022-09-30T05:15:56;30.30;;;22.70;;
54167;SDS011;40072;50.958;3.592;2022-09-30T05:18:22;26.67;;;19.05;;
54167;SDS011;40072;50.958;3.592;2022-09-30T05:20:51;24.75;;;19.67;;
54167;SDS011;40072;50.958;3.592;2022-09-30T05:23:27;27.10;;;21.65;;
54167;SDS011;40072;50.958;3.592;2022-09-30T05:25:54;25.85;;;18.42;;
54167;SDS011;40072;50.958;3.592;2022-09-30T05:28:20;31.77;;;21.27;;
54167;SDS011;40072;50.958;3.592;2022-09-30T05:30:46;25.48;;;18.27;;
54167;SDS011;40072;50.958;3.592;2022-09-30T05:33:13;23.17;;;18.85;;
54167;SDS011;40072;50.958;3.592;2022-09-30T05:35:40;26.25;;;18.42;;
54167;SDS011;40072;50.958;3.592;2022-09-30T05:38:06;25.98;;;19.98;;
54167;SDS011;40072;50.958;3.592;2022-09-30T05:40:32;27.52;;;17.58;;
54167;SDS011;40072;50.958;3.592;2022-09-30T05:43:00;20.27;;;16.90;;
54167;SDS011;40072;50.958;3.592;2022-09-30T05:45:26;22.45;;;15.68;;
54167;SDS011;40072;50.958;3.592;2022-09-30T05:47:52;21.30;;;17.58;;
54167;SDS011;40072;50.958;3.592;2022-09-30T05:50:18;34.35;;;18.20;;
54167;SDS011;40072;50.958;3.592;2022-09-30T05:52:45;26.83;;;17.15;;
54167;SDS011;40072;50.958;3.592;2022-09-30T05:55:11;26.98;;;19.45;;
54167;SDS011;40072;50.958;3.592;2022-09-30T05:57:37;33.55;;;22.02;;
54167;SDS011;40072;50.958;3.592;2022-09-30T06:00:04;30.58;;;18.83;;
54167;SDS011;40072;50.958;3.592;2022-09-30T06:02:31;24.73;;;19.95;;
54167;SDS011;40072;50.958;3.592;2022-09-30T06:04:57;25.80;;;19.92;;
54167;SDS011;40072;50.958;3.592;2022-09-30T06:07:23;35.88;;;21.70;;
54167;SDS011;40072;50.958;3.592;2022-09-30T06:09:48;25.85;;;21.48;;
54167;SDS011;40072;50.958;3.592;2022-09-30T06:12:14;32.25;;;21.52;;
54167;SDS011;40072;50.958;3.592;2022-09-30T06:14:40;31.85;;;22.95;;
54167;SDS011;40072;50.958;3.592;2022-09-30T06:17:06;29.70;;;21.90;;
54167;SDS011;40072;50.958;3.592;2022-09-30T06:19:31;25.02;;;20.50;;
54167;SDS011;40072;50.958;3.592;2022-09-30T06:21:57;32.25;;;22.38;;
54167;SDS011;40072;50.958;3.592;2022-09-30T06:24:23;37.67;;;24.48;;
54167;SDS011;40072;50.958;3.592;2022-09-30T06:26:49;29.52;;;23.67;;
54167;SDS011;40072;50.958;3.592;2022-09-30T06:29:14;34.88;;;22.42;;
54167;SDS011;40072;50.958;3.592;2022-09-30T06:31:40;41.13;;;24.58;;
54167;SDS011;40072;50.958;3.592;2022-09-30T06:34:06;29.35;;;22.10;;
54167;SDS011;40072;50.958;3.592;2022-09-30T06:36:32;26.67;;;20.60;;
54167;SDS011;40072;50.958;3.592;2022-09-30T06:39:01;29.55;;;21.58;;
54167;SDS011;40072;50.958;3.592;2022-09-30T06:41:28;30.48;;;22.70;;
54167;SDS011;40072;50.958;3.592;2022-09-30T06:43:54;29.05;;;21.02;;
54167;SDS011;40072;50.958;3.592;2022-09-30T06:46:21;30.05;;;22.20;;
54167;SDS011;40072;50.958;3.592;2022-09-30T06:48:48;28.70;;;22.65;;
54167;SDS011;40072;50.958;3.592;2022-09-30T06:51:16;27.27;;;22.48;;
54167;SDS011;40072;50.958;3.592;2022-09-30T06:53:42;35.53;;;22.02;;
54167;SDS011;40072;50.958;3.592;2022-09-30T06:56:08;43.97;;;24.55;;
54167;SDS011;40072;50.958;3.592;2022-09-30T06:58:34;32.90;;;22.90;;
54167;SDS011;40072;50.958;3.592;2022-09-30T07:01:00;34.20;;;22.27;;
54167;SDS011;40072;50.958;3.592;2022-09-30T07:03:30;33.42;;;22.50;;
54167;SDS011;40072;50.958;3.592;2022-09-30T07:05:58;31.50;;;19.50;;
54167;SDS011;40072;50.958;3.592;2022-09-30T07:08:25;30.33;;;20.10;;
54167;SDS011;40072;50.958;3.592;2022-09-30T07:10:56;23.00;;;17.08;;
54167;SDS011;40072;50.958;3.592;2022-09-30T07:13:23;21.95;;;17.33;;
54167;SDS011;40072;50.958;3.592;2022-09-30T07:15:48;28.73;;;16.58;;
54167;SDS011;40072;50.958;3.592;2022-09-30T07:18:18;22.88;;;16.90;;
54167;SDS011;40072;50.958;3.592;2022-09-30T07:20:50;21.20;;;15.18;;
54167;SDS011;40072;50.958;3.592;2022-09-30T07:23:17;23.67;;;14.90;;
54167;SDS011;40072;50.958;3.592;2022-09-30T07:25:53;34.33;;;16.38;;
54167;SDS011;40072;50.958;3.592;2022-09-30T07:28:25;19.08;;;13.60;;
54167;SDS011;40072;50.958;3.592;2022-09-30T07:30:54;24.98;;;14.75;;
54167;SDS011;40072;50.958;3.592;2022-09-30T07:33:24;32.25;;;14.18;;
54167;SDS011;40072;50.958;3.592;2022-09-30T07:35:53;17.23;;;13.25;;
54167;SDS011;40072;50.958;3.592;2022-09-30T07:38:21;22.02;;;12.85;;
54167;SDS011;40072;50.958;3.592;2022-09-30T07:40:53;22.73;;;13.18;;
54167;SDS011;40072;50.958;3.592;2022-09-30T07:43:28;23.38;;;12.73;;
54167;SDS011;40072;50.958;3.592;2022-09-30T07:46:03;16.42;;;12.07;;
54167;SDS011;40072;50.958;3.592;2022-09-30T07:48:29;17.38;;;12.05;;
54167;SDS011;40072;50.958;3.592;2022-09-30T07:51:04;19.83;;;11.75;;
54167;SDS011;40072;50.958;3.592;2022-09-30T07:53:30;22.98;;;12.95;;
54167;SDS011;40072;50.958;3.592;2022-09-30T07:55:56;17.88;;;10.68;;
54167;SDS011;40072;50.958;3.592;2022-09-30T07:58:26;17.80;;;10.57;;
54167;SDS011;40072;50.958;3.592;2022-09-30T08:00:51;21.20;;;10.88;;
54167;SDS011;40072;50.958;3.592;2022-09-30T08:03:17;17.15;;;9.82;;
54167;SDS011;40072;50.958;3.592;2022-09-30T08:05:43;16.30;;;9.85;;
54167;SDS011;40072;50.958;3.592;2022-09-30T08:08:10;16.00;;;9.63;;
54167;SDS011;40072;50.958;3.592;2022-09-30T08:10:36;16.45;;;9.85;;
54167;SDS011;40072;50.958;3.592;2022-09-30T08:13:02;11.95;;;9.35;;
54167;SDS011;40072;50.958;3.592;2022-09-30T08:15:28;15.65;;;8.35;;
54167;SDS011;40072;50.958;3.592;2022-09-30T08:17:53;13.27;;;7.85;;
54167;SDS011;40072;50.958;3.592;2022-09-30T08:20:19;16.90;;;8.27;;
54167;SDS011;40072;50.958;3.592;2022-09-30T08:22:44;11.00;;;8.05;;
54167;SDS011;40072;50.958;3.592;2022-09-30T08:25:10;15.18;;;8.65;;
54167;SDS011;40072;50.958;3.592;2022-09-30T08:27:36;12.07;;;8.35;;
54167;SDS011;40072;50.958;3.592;2022-09-30T08:30:02;13.43;;;8.00;;
54167;SDS011;40072;50.958;3.592;2022-09-30T08:32:29;19.27;;;8.82;;
54167;SDS011;40072;50.958;3.592;2022-09-30T08:34:55;12.82;;;7.40;;
54167;SDS011;40072;50.958;3.592;2022-09-30T08:37:21;16.52;;;7.78;;
54167;SDS011;40072;50.958;3.592;2022-09-30T08:39:48;14.23;;;7.93;;
54167;SDS011;40072;50.958;3.592;2022-09-30T08:42:17;12.27;;;7.07;;
54167;SDS011;40072;50.958;3.592;2022-09-30T08:55:42;8.55;;;5.10;;
54167;SDS011;40072;50.958;3.592;2022-09-30T08:58:21;10.18;;;5.60;;
54167;SDS011;40072;50.958;3.592;2022-09-30T09:00:51;6.93;;;5.43;;
54167;SDS011;40072;50.958;3.592;2022-09-30T09:03:26;7.93;;;5.80;;
54167;SDS011;40072;50.958;3.592;2022-09-30T09:08:33;8.68;;;5.53;;
54167;SDS011;40072;50.958;3.592;2022-09-30T09:11:21;9.27;;;4.70;;
54167;SDS011;40072;50.958;3.592;2022-09-30T09:14:13;8.75;;;4.95;;
54167;SDS011;40072;50.958;3.592;2022-09-30T09:17:07;5.65;;;4.35;;
54167;SDS011;40072;50.958;3.592;2022-09-30T09:22:46;14.55;;;4.50;;
54167;SDS011;40072;50.958;3.592;2022-09-30T09:25:16;9.27;;;5.10;;
54167;SDS011;40072;50.958;3.592;2022-09-30T09:30:20;7.95;;;4.50;;
54167;SDS011;40072;50.958;3.592;2022-09-30T09:32:55;10.38;;;4.60;;
54167;SDS011;40072;50.958;3.592;2022-09-30T09:38:15;9.85;;;4.72;;
54167;SDS011;40072;50.958;3.592;2022-09-30T09:43:51;7.60;;;5.10;;
54167;SDS011;40072;50.958;3.592;2022-09-30T09:46:33;7.45;;;5.07;;
54167;SDS011;40072;50.958;3.592;2022-09-30T09:49:30;9.02;;;5.18;;
54167;SDS011;40072;50.958;3.592;2022-09-30T09:52:00;6.43;;;4.30;;
54167;SDS011;40072;50.958;3.592;2022-09-30T09:54:45;10.32;;;5.32;;
54167;SDS011;40072;50.958;3.592;2022-09-30T09:57:21;10.23;;;5.57;;
54167;SDS011;40072;50.958;3.592;2022-09-30T10:00:21;10.63;;;5.15;;
54167;SDS011;40072;50.958;3.592;2022-09-30T10:05:40;15.27;;;5.28;;
54167;SDS011;40072;50.958;3.592;2022-09-30T10:08:11;9.50;;;4.80;;
54167;SDS011;40072;50.958;3.592;2022-09-30T10:10:50;12.02;;;5.07;;
54167;SDS011;40072;50.958;3.592;2022-09-30T10:13:21;7.15;;;4.35;;
54167;SDS011;40072;50.958;3.592;2022-09-30T10:15:50;5.53;;;4.25;;
54167;SDS011;40072;50.958;3.592;2022-09-30T10:18:22;11.30;;;4.72;;
54167;SDS011;40072;50.958;3.592;2022-09-30T10:20:50;6.20;;;4.45;;
54167;SDS011;40072;50.958;3.592;2022-09-30T10:25:56;10.48;;;4.90;;
54167;SDS011;40072;50.958;3.592;2022-09-30T10:28:29;9.55;;;4.97;;
54167;SDS011;40072;50.958;3.592;2022-09-30T10:31:10;8.60;;;4.60;;
54167;SDS011;40072;50.958;3.592;2022-09-30T10:36:28;8.73;;;4.90;;
54167;SDS011;40072;50.958;3.592;2022-09-30T10:39:06;10.48;;;4.50;;
54167;SDS011;40072;50.958;3.592;2022-09-30T10:41:33;8.30;;;4.72;;
54167;SDS011;40072;50.958;3.592;2022-09-30T10:44:05;4.60;;;3.90;;
54167;SDS011;40072;50.958;3.592;2022-09-30T10:46:39;6.70;;;4.60;;
54167;SDS011;40072;50.958;3.592;2022-09-30T10:51:51;7.05;;;3.65;;
54167;SDS011;40072;50.958;3.592;2022-09-30T10:57:15;5.22;;;4.20;;
54167;SDS011;40072;50.958;3.592;2022-09-30T11:02:41;4.05;;;3.13;;
54167;SDS011;40072;50.958;3.592;2022-09-30T11:05:20;6.03;;;3.53;;
54167;SDS011;40072;50.958;3.592;2022-09-30T11:07:51;4.40;;;3.28;;
54167;SDS011;40072;50.958;3.592;2022-09-30T11:13:09;5.40;;;3.63;;
54167;SDS011;40072;50.958;3.592;2022-09-30T11:15:47;7.88;;;3.80;;
54167;SDS011;40072;50.958;3.592;2022-09-30T11:21:34;5.22;;;2.63;;
54167;SDS011;40072;50.958;3.592;2022-09-30T11:24:05;4.30;;;2.70;;
54167;SDS011;40072;50.958;3.592;2022-09-30T11:26:56;3.97;;;2.53;;
54167;SDS011;40072;50.958;3.592;2022-09-30T11:36:23;2.97;;;2.30;;
54167;SDS011;40072;50.958;3.592;2022-09-30T11:41:00;4.93;;;3.10;;
54167;SDS011;40072;50.958;3.592;2022-09-30T11:47:04;9.27;;;2.38;;
54167;SDS011;40072;50.958;3.592;2022-09-30T11:52:56;5.78;;;3.05;;
54167;SDS011;40072;50.958;3.592;2022-09-30T11:58:10;3.50;;;2.88;;
54167;SDS011;40072;50.958;3.592;2022-09-30T12:00:44;4.45;;;2.67;;
54167;SDS011;40072;50.958;3.592;2022-09-30T12:03:17;4.60;;;2.70;;
54167;SDS011;40072;50.958;3.592;2022-09-30T12:06:01;2.92;;;2.72;;
54167;SDS011;40072;50.958;3.592;2022-09-30T12:08:35;5.28;;;2.92;;
54167;SDS011;40072;50.958;3.592;2022-09-30T12:11:07;3.17;;;2.40;;
54167;SDS011;40072;50.958;3.592;2022-09-30T12:13:39;3.47;;;2.42;;
54167;SDS011;40072;50.958;3.592;2022-09-30T12:16:13;4.13;;;2.50;;
54167;SDS011;40072;50.958;3.592;2022-09-30T12:18:45;3.78;;;2.80;;
54167;SDS011;40072;50.958;3.592;2022-09-30T12:21:39;7.50;;;2.67;;
54167;SDS011;40072;50.958;3.592;2022-09-30T12:24:16;5.70;;;2.70;;
54167;SDS011;40072;50.958;3.592;2022-09-30T12:26:43;5.63;;;2.60;;
54167;SDS011;40072;50.958;3.592;2022-09-30T12:38:37;2.63;;;1.80;;
54167;SDS011;40072;50.958;3.592;2022-09-30T12:49:13;3.45;;;2.10;;
54167;SDS011;40072;50.958;3.592;2022-09-30T12:51:44;3.35;;;2.03;;
54167;SDS011;40072;50.958;3.592;2022-09-30T12:54:15;3.25;;;1.90;;
54167;SDS011;40072;50.958;3.592;2022-09-30T12:56:46;3.90;;;2.22;;
54167;SDS011;40072;50.958;3.592;2022-09-30T12:59:17;2.33;;;2.10;;
54167;SDS011;40072;50.958;3.592;2022-09-30T13:01:50;9.00;;;2.05;;
54167;SDS011;40072;50.958;3.592;2022-09-30T13:04:17;1.92;;;1.77;;
54167;SDS011;40072;50.958;3.592;2022-09-30T13:07:17;2.72;;;2.38;;
54167;SDS011;40072;50.958;3.592;2022-09-30T13:10:29;4.45;;;2.00;;
54167;SDS011;40072;50.958;3.592;2022-09-30T13:13:07;4.75;;;2.03;;
54167;SDS011;40072;50.958;3.592;2022-09-30T13:15:41;2.78;;;1.48;;
54167;SDS011;40072;50.958;3.592;2022-09-30T13:20:51;4.00;;;1.60;;
54167;SDS011;40072;50.958;3.592;2022-09-30T13:23:43;5.43;;;1.42;;
54167;SDS011;40072;50.958;3.592;2022-09-30T13:28:51;2.15;;;1.38;;
54167;SDS011;40072;50.958;3.592;2022-09-30T13:31:19;5.13;;;1.40;;
54167;SDS011;40072;50.958;3.592;2022-09-30T13:34:02;2.67;;;1.25;;
54167;SDS011;40072;50.958;3.592;2022-09-30T13:36:38;2.72;;;1.38;;
54167;SDS011;40072;50.958;3.592;2022-09-30T13:47:28;1.30;;;1.10;;
54167;SDS011;40072;50.958;3.592;2022-09-30T13:50:45;2.10;;;1.38;;
54167;SDS011;40072;50.958;3.592;2022-09-30T13:52:54;2.65;;;1.70;;
54167;SDS011;40072;50.958;3.592;2022-09-30T13:55:24;5.38;;;1.52;;
54167;SDS011;40072;50.958;3.592;2022-09-30T14:23:20;1.58;;;1.33;;
54167;SDS011;40072;50.958;3.592;2022-09-30T14:28:52;5.25;;;1.73;;
54167;SDS011;40072;50.958;3.592;2022-09-30T14:31:41;2.80;;;1.70;;
54167;SDS011;40072;50.958;3.592;2022-09-30T14:34:11;2.88;;;1.60;;
54167;SDS011;40072;50.958;3.592;2022-09-30T14:36:38;4.35;;;1.70;;
54167;SDS011;40072;50.958;3.592;2022-09-30T14:39:05;3.83;;;1.70;;
54167;SDS011;40072;50.958;3.592;2022-09-30T14:41:39;6.07;;;1.70;;
54167;SDS011;40072;50.958;3.592;2022-09-30T14:44:14;3.45;;;1.80;;
54167;SDS011;40072;50.958;3.592;2022-09-30T14:46:42;2.72;;;1.40;;
54167;SDS011;40072;50.958;3.592;2022-09-30T14:49:14;2.85;;;1.80;;
54167;SDS011;40072;50.958;3.592;2022-09-30T14:56:48;2.83;;;1.40;;
54167;SDS011;40072;50.958;3.592;2022-09-30T14:59:19;1.40;;;1.13;;
54167;SDS011;40072;50.958;3.592;2022-09-30T15:01:47;2.80;;;1.25;;
54167;SDS011;40072;50.958;3.592;2022-09-30T15:04:21;1.60;;;1.30;;
54167;SDS011;40072;50.958;3.592;2022-09-30T15:06:50;2.38;;;1.20;;
54167;SDS011;40072;50.958;3.592;2022-09-30T15:09:26;6.88;;;1.30;;
54167;SDS011;40072;50.958;3.592;2022-09-30T15:12:06;3.20;;;1.30;;
54167;SDS011;40072;50.958;3.592;2022-09-30T15:14:49;2.45;;;1.25;;
54167;SDS011;40072;50.958;3.592;2022-09-30T15:17:20;1.73;;;1.25;;
54167;SDS011;40072;50.958;3.592;2022-09-30T15:19:49;3.80;;;1.10;;
54167;SDS011;40072;50.958;3.592;2022-09-30T15:22:15;2.45;;;1.05;;
54167;SDS011;40072;50.958;3.592;2022-09-30T15:24:42;1.02;;;0.95;;
54167;SDS011;40072;50.958;3.592;2022-09-30T15:27:18;1.65;;;1.10;;
54167;SDS011;40072;50.958;3.592;2022-09-30T15:29:54;1.90;;;1.07;;
54167;SDS011;40072;50.958;3.592;2022-09-30T15:32:28;1.13;;;0.80;;
54167;SDS011;40072;50.958;3.592;2022-09-30T15:35:05;3.65;;;1.70;;
54167;SDS011;40072;50.958;3.592;2022-09-30T15:37:32;3.33;;;1.90;;
54167;SDS011;40072;50.958;3.592;2022-09-30T15:39:58;2.60;;;1.52;;
54167;SDS011;40072;50.958;3.592;2022-09-30T15:42:46;4.53;;;1.75;;
54167;SDS011;40072;50.958;3.592;2022-09-30T15:47:52;1.17;;;1.08;;
54167;SDS011;40072;50.958;3.592;2022-09-30T15:53:11;2.47;;;0.93;;
54167;SDS011;40072;50.958;3.592;2022-09-30T15:55:42;1.65;;;1.23;;
54167;SDS011;40072;50.958;3.592;2022-09-30T16:01:16;1.38;;;1.00;;
54167;SDS011;40072;50.958;3.592;2022-09-30T16:03:51;3.45;;;1.33;;
54167;SDS011;40072;50.958;3.592;2022-09-30T16:06:31;3.50;;;2.10;;
54167;SDS011;40072;50.958;3.592;2022-09-30T16:09:01;1.42;;;0.93;;
54167;SDS011;40072;50.958;3.592;2022-09-30T16:13:59;3.75;;;1.27;;
54167;SDS011;40072;50.958;3.592;2022-09-30T16:16:27;3.88;;;1.42;;
54167;SDS011;40072;50.958;3.592;2022-09-30T16:18:56;2.67;;;0.97;;
54167;SDS011;40072;50.958;3.592;2022-09-30T16:23:51;2.25;;;1.05;;
54167;SDS011;40072;50.958;3.592;2022-09-30T16:26:19;2.35;;;1.17;;
54167;SDS011;40072;50.958;3.592;2022-09-30T16:28:48;2.58;;;1.15;;
54167;SDS011;40072;50.958;3.592;2022-09-30T16:31:15;2.33;;;1.20;;
54167;SDS011;40072;50.958;3.592;2022-09-30T16:33:42;3.92;;;2.47;;
54167;SDS011;40072;50.958;3.592;2022-09-30T16:36:09;3.10;;;1.60;;
54167;SDS011;40072;50.958;3.592;2022-09-30T16:38:36;2.00;;;1.40;;
54167;SDS011;40072;50.958;3.592;2022-09-30T16:41:02;4.53;;;1.60;;
54167;SDS011;40072;50.958;3.592;2022-09-30T16:43:29;2.58;;;1.77;;
54167;SDS011;40072;50.958;3.592;2022-09-30T16:45:55;2.95;;;1.75;;
54167;SDS011;40072;50.958;3.592;2022-09-30T16:48:23;3.10;;;1.27;;
54167;SDS011;40072;50.958;3.592;2022-09-30T16:53:38;5.63;;;2.00;;
54167;SDS011;40072;50.958;3.592;2022-09-30T16:56:07;7.30;;;2.75;;
54167;SDS011;40072;50.958;3.592;2022-09-30T16:58:40;2.55;;;1.92;;
54167;SDS011;40072;50.958;3.592;2022-09-30T17:01:17;4.53;;;1.58;;
54167;SDS011;40072;50.958;3.592;2022-09-30T17:03:44;2.90;;;1.40;;
54167;SDS011;40072;50.958;3.592;2022-09-30T17:06:11;2.50;;;1.25;;
54167;SDS011;40072;50.958;3.592;2022-09-30T17:08:37;3.30;;;1.40;;
54167;SDS011;40072;50.958;3.592;2022-09-30T17:11:02;4.45;;;1.60;;
54167;SDS011;40072;50.958;3.592;2022-09-30T17:13:28;1.92;;;1.33;;
54167;SDS011;40072;50.958;3.592;2022-09-30T17:15:54;8.13;;;3.35;;
54167;SDS011;40072;50.958;3.592;2022-09-30T17:18:20;8.18;;;4.38;;
54167;SDS011;40072;50.958;3.592;2022-09-30T17:20:47;7.18;;;3.00;;
54167;SDS011;40072;50.958;3.592;2022-09-30T17:23:22;5.68;;;3.78;;
54167;SDS011;40072;50.958;3.592;2022-09-30T17:25:49;2.08;;;1.88;;
54167;SDS011;40072;50.958;3.592;2022-09-30T17:28:15;6.57;;;3.08;;
54167;SDS011;40072;50.958;3.592;2022-09-30T17:30:42;4.25;;;2.20;;
54167;SDS011;40072;50.958;3.592;2022-09-30T17:33:10;8.13;;;7.40;;
54167;SDS011;40072;50.958;3.592;2022-09-30T17:35:36;9.18;;;2.58;;
54167;SDS011;40072;50.958;3.592;2022-09-30T17:38:09;6.53;;;3.50;;
54167;SDS011;40072;50.958;3.592;2022-09-30T17:40:36;3.45;;;2.40;;
54167;SDS011;40072;50.958;3.592;2022-09-30T17:43:21;4.20;;;3.03;;
54167;SDS011;40072;50.958;3.592;2022-09-30T17:45:47;4.22;;;2.17;;
54167;SDS011;40072;50.958;3.592;2022-09-30T17:48:15;2.53;;;2.08;;
54167;SDS011;40072;50.958;3.592;2022-09-30T17:50:43;5.65;;;1.70;;
54167;SDS011;40072;50.958;3.592;2022-09-30T17:53:11;3.13;;;1.92;;
54167;SDS011;40072;50.958;3.592;2022-09-30T17:55:40;1.95;;;1.55;;
54167;SDS011;40072;50.958;3.592;2022-09-30T17:58:07;3.53;;;1.75;;
54167;SDS011;40072;50.958;3.592;2022-09-30T18:00:35;34.10;;;1.77;;
54167;SDS011;40072;50.958;3.592;2022-09-30T18:03:02;2.08;;;1.30;;
54167;SDS011;40072;50.958;3.592;2022-09-30T18:05:28;1.70;;;1.48;;
54167;SDS011;40072;50.958;3.592;2022-09-30T18:07:55;2.65;;;1.60;;
54167;SDS011;40072;50.958;3.592;2022-09-30T18:10:22;9.05;;;3.75;;
54167;SDS011;40072;50.958;3.592;2022-09-30T18:12:48;4.15;;;2.08;;
54167;SDS011;40072;50.958;3.592;2022-09-30T18:15:15;3.17;;;1.98;;
54167;SDS011;40072;50.958;3.592;2022-09-30T18:17:42;3.45;;;1.65;;
54167;SDS011;40072;50.958;3.592;2022-09-30T18:20:09;4.20;;;1.45;;
54167;SDS011;40072;50.958;3.592;2022-09-30T18:22:35;4.20;;;3.60;;
54167;SDS011;40072;50.958;3.592;2022-09-30T18:25:00;4.65;;;2.67;;
54167;SDS011;40072;50.958;3.592;2022-09-30T18:27:49;2.72;;;2.40;;
54167;SDS011;40072;50.958;3.592;2022-09-30T18:30:16;4.00;;;3.60;;